Time;durP1;ratioP1;P1;durP2;ratioP2;P2;SDS_P1;SDS_P2;PMS_P1;PMS_P2;Temp;Humidity;BMP_temperature;BMP_pressure;BME280_temperature;BME280_humidity;BME280_pressure;Samples;Min_cycle;Max_cycle;Signal;HPM_P1;HPM_P2
2022/03/08 00:01:07;;;;;;;9.93;4.13;;;4.40;93.20;;;;;;5138992;27;20054;-83
2022/03/08 00:03:33;;;;;;;7.40;3.67;;;4.50;93.30;;;;;;5138171;27;20043;-83
2022/03/08 00:05:59;;;;;;;8.20;3.92;;;4.50;93.30;;;;;;5121979;27;20116;-82
2022/03/08 00:08:25;;;;;;;6.38;3.97;;;4.50;93.30;;;;;;5138219;27;20047;-83
2022/03/08 00:10:53;;;;;;;9.10;4.15;;;4.40;93.20;;;;;;5122284;27;20083;-82
2022/03/08 00:13:20;;;;;;;9.35;4.38;;;4.50;93.20;;;;;;5121136;27;20149;-82
2022/03/08 00:15:45;;;;;;;8.73;4.00;;;4.30;93.20;;;;;;5138388;27;20473;-82
2022/03/08 00:18:11;;;;;;;6.30;3.47;;;4.30;93.10;;;;;;5138593;27;20039;-82
2022/03/08 00:20:38;;;;;;;8.07;4.55;;;4.30;93.30;;;;;;5121208;27;20497;-83
2022/03/08 00:23:04;;;;;;;7.00;3.90;;;4.20;93.40;;;;;;5138435;27;20111;-82
2022/03/08 00:25:29;;;;;;;7.50;3.88;;;4.20;93.40;;;;;;5138384;27;20046;-82
2022/03/08 00:27:56;;;;;;;8.43;4.07;;;4.20;93.50;;;;;;5121040;27;20165;-82
2022/03/08 00:30:26;;;;;;;9.63;4.60;;;4.20;93.30;;;;;;5137167;27;20053;-82
2022/03/08 00:32:53;;;;;;;7.90;4.40;;;4.20;93.30;;;;;;5137999;27;20114;-82
2022/03/08 00:35:20;;;;;;;10.52;4.22;;;4.20;93.40;;;;;;5138150;27;20049;-83
2022/03/08 00:37:50;;;;;;;10.73;4.53;;;4.20;93.40;;;;;;5137828;27;20130;-82
2022/03/08 00:40:18;;;;;;;8.02;4.68;;;4.20;93.50;;;;;;5120647;27;20058;-82
2022/03/08 00:42:44;;;;;;;9.02;4.53;;;4.10;93.30;;;;;;5120927;27;20078;-82
2022/03/08 00:45:10;;;;;;;8.52;4.13;;;4.10;93.60;;;;;;5138587;27;20073;-82
2022/03/08 00:47:39;;;;;;;11.60;4.43;;;4.00;93.50;;;;;;5116700;27;20088;-82
2022/03/08 00:50:07;;;;;;;7.32;4.18;;;3.90;93.60;;;;;;5117668;27;20051;-83
2022/03/08 00:52:33;;;;;;;11.70;4.40;;;3.90;93.70;;;;;;5134301;27;20043;-82
2022/03/08 00:54:59;;;;;;;9.55;4.80;;;3.90;93.70;;;;;;5134234;27;20047;-82
2022/03/08 00:57:25;;;;;;;7.60;4.53;;;3.80;93.70;;;;;;5134292;27;20087;-82
2022/03/08 00:59:50;;;;;;;8.00;4.22;;;3.90;93.70;;;;;;5117413;27;20043;-82
2022/03/08 01:02:16;;;;;;;8.38;4.68;;;3.80;93.80;;;;;;5100255;27;20135;-82
2022/03/08 01:04:42;;;;;;;8.27;4.60;;;3.80;93.90;;;;;;5116954;27;20095;-82
2022/03/08 01:07:08;;;;;;;9.57;4.43;;;3.80;93.80;;;;;;5133572;27;20126;-82
2022/03/08 01:09:34;;;;;;;9.18;4.63;;;3.80;94.00;;;;;;5134279;27;20056;-82
2022/03/08 01:12:00;;;;;;;8.05;4.15;;;3.80;94.00;;;;;;5133988;27;20039;-82
2022/03/08 01:14:26;;;;;;;10.63;4.68;;;3.80;93.90;;;;;;5134058;27;20043;-82
2022/03/08 01:16:51;;;;;;;9.48;4.65;;;3.80;93.70;;;;;;5116810;27;20542;-82
2022/03/08 01:19:17;;;;;;;10.32;5.30;;;3.70;93.80;;;;;;5117029;27;20126;-82
2022/03/08 01:21:43;;;;;;;12.43;4.85;;;3.70;94.00;;;;;;5116807;28;20132;-82
2022/03/08 01:24:08;;;;;;;9.50;5.30;;;3.60;94.10;;;;;;5116803;27;20057;-81
2022/03/08 01:26:34;;;;;;;10.40;5.03;;;3.60;93.90;;;;;;5116513;27;20043;-82
2022/03/08 01:29:01;;;;;;;7.72;4.93;;;3.50;94.00;;;;;;5099700;27;20039;-82
2022/03/08 01:31:26;;;;;;;10.23;5.65;;;3.50;94.20;;;;;;5116770;27;20079;-82
2022/03/08 01:33:54;;;;;;;10.70;5.00;;;3.60;94.10;;;;;;5133861;27;20394;-82
2022/03/08 01:36:21;;;;;;;8.63;5.40;;;3.50;94.20;;;;;;5133758;27;20427;-82
2022/03/08 01:38:47;;;;;;;10.65;5.18;;;3.50;94.30;;;;;;5116323;27;20359;-82
2022/03/08 01:41:13;;;;;;;7.88;4.82;;;3.40;94.30;;;;;;5133495;27;20074;-82
2022/03/08 01:43:38;;;;;;;11.18;5.63;;;3.50;94.50;;;;;;5133574;27;20482;-82
2022/03/08 01:46:04;;;;;;;10.32;5.47;;;3.50;94.50;;;;;;5099231;28;20432;-82
2022/03/08 01:48:30;;;;;;;12.07;5.65;;;3.50;94.50;;;;;;5132825;27;20055;-82
2022/03/08 01:50:57;;;;;;;9.35;5.22;;;3.50;94.60;;;;;;5116318;28;20047;-82
2022/03/08 01:53:22;;;;;;;12.55;5.55;;;3.50;94.50;;;;;;5133459;28;20039;-81
2022/03/08 01:55:50;;;;;;;10.98;5.22;;;3.50;94.60;;;;;;5133481;28;20431;-82
2022/03/08 01:58:16;;;;;;;9.18;5.28;;;3.40;94.60;;;;;;5116329;28;20099;-81
2022/03/08 02:00:42;;;;;;;10.07;5.45;;;3.50;94.50;;;;;;5133452;28;20053;-82
2022/03/08 02:03:08;;;;;;;12.90;5.88;;;3.50;94.50;;;;;;5116218;28;20054;-82
2022/03/08 02:05:34;;;;;;;11.50;5.93;;;3.40;94.40;;;;;;5116294;28;20549;-81
2022/03/08 02:08:00;;;;;;;10.50;5.90;;;3.40;94.60;;;;;;5098895;28;20510;-82
2022/03/08 02:10:26;;;;;;;12.13;5.60;;;3.40;94.50;;;;;;5115867;28;20099;-81
2022/03/08 02:12:51;;;;;;;13.77;5.82;;;3.40;94.50;;;;;;5133294;28;20050;-81
2022/03/08 02:15:21;;;;;;;9.23;5.72;;;3.30;94.50;;;;;;5116321;28;20051;-81
2022/03/08 02:17:47;;;;;;;9.85;5.53;;;3.40;94.60;;;;;;5133152;28;20043;-81
2022/03/08 02:20:14;;;;;;;9.60;5.40;;;3.40;94.50;;;;;;5116927;28;20473;-82
2022/03/08 02:22:41;;;;;;;8.82;5.07;;;3.40;94.60;;;;;;5116320;28;20058;-81
2022/03/08 02:25:09;;;;;;;11.75;6.10;;;3.40;94.60;;;;;;5133261;28;20393;-81
2022/03/08 02:27:40;;;;;;;10.25;5.80;;;3.40;94.50;;;;;;5115786;28;20043;-82
2022/03/08 02:30:06;;;;;;;11.10;6.22;;;3.40;94.50;;;;;;5116410;28;20043;-81
2022/03/08 02:32:32;;;;;;;12.65;6.50;;;3.30;94.50;;;;;;5133187;28;20047;-82
2022/03/08 02:35:07;;;;;;;12.25;6.05;;;3.20;94.70;;;;;;5116218;28;20432;-81
2022/03/08 02:37:38;;;;;;;14.77;6.25;;;3.20;94.60;;;;;;5132890;28;20122;-82
2022/03/08 02:40:06;;;;;;;15.95;6.55;;;3.20;94.60;;;;;;5099019;28;20489;-81
2022/03/08 02:42:32;;;;;;;9.70;5.70;;;3.00;94.70;;;;;;5132787;28;20086;-81
2022/03/08 02:44:57;;;;;;;14.13;6.03;;;3.10;94.90;;;;;;5133183;28;20390;-81
2022/03/08 02:47:23;;;;;;;13.57;6.70;;;3.10;94.90;;;;;;5132651;28;20063;-81
2022/03/08 02:49:49;;;;;;;12.95;6.57;;;3.00;94.90;;;;;;5132690;28;20043;-81
2022/03/08 02:52:14;;;;;;;13.88;7.30;;;3.00;94.90;;;;;;5115952;28;20047;-82
2022/03/08 02:54:40;;;;;;;12.43;6.72;;;3.00;95.10;;;;;;5118598;27;20051;-82
2022/03/08 02:57:06;;;;;;;13.63;6.85;;;3.00;94.90;;;;;;5119650;27;20047;-82
2022/03/08 02:59:31;;;;;;;15.05;6.65;;;3.00;95.00;;;;;;5102650;27;20047;-82
2022/03/08 03:01:57;;;;;;;12.88;6.90;;;3.00;95.10;;;;;;5136910;27;20081;-81
2022/03/08 03:04:23;;;;;;;11.60;7.00;;;3.10;95.10;;;;;;5136561;27;20039;-82
2022/03/08 03:06:48;;;;;;;12.00;6.35;;;3.10;95.10;;;;;;5136473;27;20035;-81
2022/03/08 03:09:14;;;;;;;15.10;7.13;;;3.00;95.00;;;;;;5102326;27;20075;-81
2022/03/08 03:11:40;;;;;;;13.10;6.70;;;3.20;95.10;;;;;;5119382;27;20089;-82
2022/03/08 03:14:06;;;;;;;13.20;7.50;;;3.20;94.90;;;;;;5119125;27;20130;-82
2022/03/08 03:16:31;;;;;;;13.30;7.55;;;3.10;94.70;;;;;;5136176;27;20039;-82
2022/03/08 03:18:57;;;;;;;12.70;7.10;;;3.10;94.80;;;;;;5102140;27;20053;-82
2022/03/08 03:21:23;;;;;;;11.85;6.78;;;3.10;94.90;;;;;;5118794;27;20478;-82
2022/03/08 03:23:49;;;;;;;12.82;6.63;;;3.10;94.90;;;;;;5118983;27;20092;-82
2022/03/08 03:26:14;;;;;;;14.55;7.47;;;3.10;94.80;;;;;;5118901;27;20046;-83
2022/03/08 03:28:40;;;;;;;15.73;7.18;;;3.10;94.90;;;;;;5102010;27;20043;-82
2022/03/08 03:31:06;;;;;;;13.35;6.80;;;3.20;94.80;;;;;;5136024;27;20040;-82
2022/03/08 03:33:31;;;;;;;13.00;7.10;;;3.20;94.80;;;;;;5135988;27;20175;-82
2022/03/08 03:35:57;;;;;;;12.93;7.53;;;3.10;94.80;;;;;;5118748;27;20039;-83
2022/03/08 03:38:23;;;;;;;12.55;6.70;;;3.10;94.90;;;;;;5101301;27;20079;-82
2022/03/08 03:40:48;;;;;;;16.52;7.78;;;3.00;94.80;;;;;;5118662;27;20056;-82
2022/03/08 03:43:14;;;;;;;12.75;7.22;;;2.90;95.00;;;;;;5118764;27;20367;-82
2022/03/08 03:45:39;;;;;;;13.18;7.50;;;3.00;95.20;;;;;;5118622;27;20168;-82
2022/03/08 03:48:05;;;;;;;14.65;7.55;;;2.90;94.90;;;;;;5135029;27;20099;-82
2022/03/08 03:50:31;;;;;;;15.35;7.32;;;2.90;95.10;;;;;;5135712;27;20047;-82
2022/03/08 03:52:57;;;;;;;15.90;7.65;;;2.90;95.10;;;;;;5118835;27;20074;-82
2022/03/08 03:55:22;;;;;;;14.55;7.95;;;2.80;95.20;;;;;;5118713;27;20032;-82
2022/03/08 03:57:48;;;;;;;14.65;7.55;;;2.80;95.10;;;;;;5118341;27;20130;-82
2022/03/08 04:00:16;;;;;;;15.32;7.90;;;2.70;95.10;;;;;;5118356;27;20043;-82
2022/03/08 04:02:42;;;;;;;16.52;8.13;;;2.80;95.20;;;;;;5118523;27;20375;-82
2022/03/08 04:05:10;;;;;;;21.58;8.65;;;2.80;95.20;;;;;;5084583;27;20078;-82
2022/03/08 04:07:36;;;;;;;15.88;8.70;;;2.70;95.20;;;;;;5117418;27;20039;-83
2022/03/08 04:10:04;;;;;;;17.65;7.88;;;2.70;95.20;;;;;;5135281;27;20043;-82
2022/03/08 04:12:29;;;;;;;16.85;8.43;;;2.80;95.40;;;;;;5135414;27;20392;-82
2022/03/08 04:14:55;;;;;;;13.85;8.00;;;2.80;95.30;;;;;;5117957;27;20050;-82
2022/03/08 04:17:21;;;;;;;15.55;7.63;;;2.80;95.20;;;;;;5101062;27;20542;-82
2022/03/08 04:19:46;;;;;;;15.35;8.50;;;2.70;95.20;;;;;;5101060;27;20043;-82
2022/03/08 04:22:12;;;;;;;18.92;8.40;;;2.80;95.30;;;;;;5118017;27;20051;-83
2022/03/08 04:24:38;;;;;;;22.92;8.55;;;2.70;95.20;;;;;;5100957;27;20079;-82
2022/03/08 04:27:04;;;;;;;21.92;8.73;;;2.60;95.30;;;;;;5134692;27;20036;-83
2022/03/08 04:29:31;;;;;;;14.95;8.23;;;2.50;95.40;;;;;;5135056;27;20047;-82
2022/03/08 04:31:57;;;;;;;16.48;8.77;;;2.50;95.40;;;;;;5117724;27;20047;-82
2022/03/08 04:34:23;;;;;;;18.00;8.82;;;2.70;95.60;;;;;;5134757;27;20096;-82
2022/03/08 04:36:49;;;;;;;18.65;9.90;;;2.60;95.50;;;;;;5117589;27;20043;-82
2022/03/08 04:39:14;;;;;;;20.02;9.48;;;2.60;95.40;;;;;;5134306;27;20178;-83
2022/03/08 04:41:40;;;;;;;17.95;8.98;;;2.70;95.50;;;;;;5134597;27;20504;-82
2022/03/08 04:44:06;;;;;;;16.65;9.60;;;2.60;95.40;;;;;;5117458;27;20390;-83
2022/03/08 04:46:32;;;;;;;18.52;9.32;;;2.70;95.40;;;;;;5135752;27;20390;-83
2022/03/08 04:48:58;;;;;;;19.02;9.68;;;2.60;95.30;;;;;;5121071;27;20039;-82
2022/03/08 04:51:23;;;;;;;20.02;9.40;;;2.80;95.30;;;;;;5120745;27;20045;-83
2022/03/08 04:53:49;;;;;;;15.88;9.20;;;2.70;95.30;;;;;;5137850;27;20046;-82
2022/03/08 04:56:15;;;;;;;19.48;9.43;;;2.70;95.20;;;;;;5103699;27;20111;-82
2022/03/08 04:58:41;;;;;;;18.38;9.77;;;2.70;95.30;;;;;;5138608;27;20095;-82
2022/03/08 05:01:07;;;;;;;19.35;9.00;;;2.70;95.50;;;;;;5137868;27;20474;-82
2022/03/08 05:03:32;;;;;;;20.10;9.95;;;2.70;95.40;;;;;;5121005;27;20046;-82
2022/03/08 05:05:58;;;;;;;19.17;9.85;;;2.60;95.40;;;;;;5138004;27;20050;-82
2022/03/08 05:08:24;;;;;;;19.35;10.32;;;2.70;95.40;;;;;;5120047;27;20461;-82
2022/03/08 05:10:50;;;;;;;22.85;9.82;;;2.60;95.50;;;;;;5137902;27;20038;-82
2022/03/08 05:13:16;;;;;;;16.13;8.82;;;2.60;95.60;;;;;;5137672;27;20069;-82
2022/03/08 05:15:41;;;;;;;18.65;9.88;;;2.60;95.60;;;;;;5137104;27;20121;-82
2022/03/08 05:18:07;;;;;;;21.55;9.80;;;2.60;95.60;;;;;;5136879;27;20054;-83
2022/03/08 05:20:33;;;;;;;21.42;10.27;;;2.60;95.60;;;;;;5120311;27;20038;-82
2022/03/08 05:23:00;;;;;;;18.83;9.80;;;2.70;95.70;;;;;;5137179;27;20039;-82
2022/03/08 05:25:28;;;;;;;19.15;10.07;;;2.40;95.70;;;;;;5120508;27;20111;-82
2022/03/08 05:27:54;;;;;;;21.73;10.35;;;2.50;95.90;;;;;;5136921;27;20493;-83
2022/03/08 05:30:19;;;;;;;21.33;10.68;;;2.50;95.80;;;;;;5120424;27;20092;-82
2022/03/08 05:32:45;;;;;;;19.60;10.13;;;2.60;95.80;;;;;;5137228;27;20086;-83
2022/03/08 05:35:11;;;;;;;22.05;9.65;;;2.60;95.70;;;;;;5137277;27;20054;-82
2022/03/08 05:37:37;;;;;;;22.90;10.55;;;2.60;95.70;;;;;;5119539;27;20046;-82
2022/03/08 05:40:05;;;;;;;23.13;10.15;;;2.50;95.80;;;;;;5102934;27;20073;-82
2022/03/08 05:42:31;;;;;;;20.85;11.10;;;2.50;95.80;;;;;;5136581;27;20077;-82
2022/03/08 05:44:57;;;;;;;19.73;10.82;;;2.60;95.80;;;;;;5136946;27;20126;-82
2022/03/08 05:47:23;;;;;;;19.63;10.05;;;2.60;95.70;;;;;;5102518;27;20058;-83
2022/03/08 05:49:48;;;;;;;26.80;10.63;;;2.50;95.70;;;;;;5136640;27;20058;-83
2022/03/08 05:52:14;;;;;;;23.63;10.57;;;2.60;95.80;;;;;;5102878;27;20043;-83
2022/03/08 05:54:40;;;;;;;21.30;10.48;;;2.50;95.70;;;;;;5136759;27;20042;-82
2022/03/08 05:57:06;;;;;;;22.33;10.90;;;2.60;95.70;;;;;;5137207;27;20137;-82
2022/03/08 05:59:31;;;;;;;19.63;10.23;;;2.60;95.70;;;;;;5119736;27;20043;-82
2022/03/08 06:01:57;;;;;;;24.10;10.90;;;2.50;95.80;;;;;;5136654;27;20047;-82
2022/03/08 06:04:23;;;;;;;20.95;10.88;;;2.60;95.70;;;;;;5119702;27;20043;-83
2022/03/08 06:06:50;;;;;;;22.27;11.13;;;2.60;95.70;;;;;;5119390;27;20060;-82
2022/03/08 06:09:16;;;;;;;22.02;10.40;;;2.60;95.60;;;;;;5119130;27;20103;-82
2022/03/08 06:11:42;;;;;;;20.73;10.40;;;2.60;95.60;;;;;;5136633;27;20370;-82
2022/03/08 06:14:08;;;;;;;24.05;10.15;;;2.60;95.60;;;;;;5102760;27;20038;-82
2022/03/08 06:16:34;;;;;;;25.40;11.13;;;2.60;95.70;;;;;;5120046;27;20043;-82
2022/03/08 06:18:59;;;;;;;25.83;10.90;;;2.60;95.60;;;;;;5136475;27;20397;-82
2022/03/08 06:21:25;;;;;;;21.73;10.73;;;2.50;95.70;;;;;;5136659;27;20061;-82
2022/03/08 06:23:51;;;;;;;22.50;10.85;;;2.60;95.70;;;;;;5119358;27;20046;-82
2022/03/08 06:26:17;;;;;;;22.45;11.55;;;2.60;95.70;;;;;;5102270;27;20039;-82
2022/03/08 06:28:44;;;;;;;23.55;10.13;;;2.60;95.70;;;;;;5137726;27;20102;-82
2022/03/08 06:31:09;;;;;;;22.92;11.18;;;2.60;95.50;;;;;;5123111;27;20478;-83
2022/03/08 06:33:35;;;;;;;24.95;10.98;;;2.70;95.70;;;;;;5123146;27;20125;-83
2022/03/08 06:36:01;;;;;;;23.13;11.88;;;2.70;95.60;;;;;;5140314;27;20049;-82
2022/03/08 06:38:26;;;;;;;23.85;11.40;;;2.70;95.60;;;;;;5122567;27;20400;-83
2022/03/08 06:40:52;;;;;;;24.13;11.25;;;2.60;95.70;;;;;;5123054;27;20049;-83
2022/03/08 06:43:19;;;;;;;25.35;11.70;;;2.60;95.60;;;;;;5123440;27;20035;-83
2022/03/08 06:45:45;;;;;;;24.80;11.77;;;2.60;95.70;;;;;;5140125;27;20470;-83
2022/03/08 06:48:11;;;;;;;20.35;10.18;;;2.70;95.70;;;;;;5122495;27;20055;-82
2022/03/08 06:50:37;;;;;;;22.10;11.27;;;2.70;95.70;;;;;;5139739;27;20130;-82
2022/03/08 06:53:03;;;;;;;24.50;11.57;;;2.70;95.80;;;;;;5106091;27;20088;-83
2022/03/08 06:55:28;;;;;;;23.50;10.57;;;2.80;95.70;;;;;;5122863;27;20086;-83
2022/03/08 06:57:54;;;;;;;26.40;11.60;;;2.90;95.70;;;;;;5140028;27;20046;-83
2022/03/08 07:00:20;;;;;;;23.63;10.70;;;3.00;95.70;;;;;;5122880;27;20091;-83
2022/03/08 07:02:46;;;;;;;22.48;11.05;;;3.00;95.50;;;;;;5139970;27;20046;-83
2022/03/08 07:05:11;;;;;;;26.00;11.52;;;3.20;95.40;;;;;;5122256;27;20039;-82
2022/03/08 07:07:38;;;;;;;23.08;11.75;;;3.20;95.50;;;;;;5108833;27;20038;-82
2022/03/08 07:10:05;;;;;;;21.05;11.18;;;3.10;95.20;;;;;;5122637;27;20047;-82
2022/03/08 07:12:31;;;;;;;24.67;11.55;;;3.10;95.40;;;;;;5122622;27;20043;-82
2022/03/08 07:14:57;;;;;;;26.75;11.88;;;3.10;95.30;;;;;;5122459;27;20064;-82
2022/03/08 07:17:23;;;;;;;21.55;10.80;;;3.20;95.40;;;;;;5122548;27;20071;-82
2022/03/08 07:19:48;;;;;;;23.17;11.02;;;3.30;95.50;;;;;;5122342;27;20047;-82
2022/03/08 07:22:17;;;;;;;26.10;11.18;;;3.20;95.30;;;;;;5139349;27;20071;-82
2022/03/08 07:24:43;;;;;;;26.02;11.18;;;3.20;95.40;;;;;;5122371;27;20095;-82
2022/03/08 07:27:09;;;;;;;21.60;10.32;;;3.10;95.30;;;;;;5122074;27;20038;-82
2022/03/08 07:29:36;;;;;;;27.15;12.57;;;3.10;95.40;;;;;;5122270;27;20054;-83
2022/03/08 07:32:02;;;;;;;23.25;11.43;;;3.20;95.30;;;;;;5121771;27;20045;-83
2022/03/08 07:34:27;;;;;;;28.38;12.07;;;3.30;95.30;;;;;;5139283;27;20038;-83
2022/03/08 07:36:54;;;;;;;25.27;11.90;;;3.40;95.30;;;;;;5139645;27;20053;-82
2022/03/08 07:39:19;;;;;;;24.73;11.18;;;3.60;95.20;;;;;;5104299;27;20043;-83
2022/03/08 07:41:45;;;;;;;23.65;10.95;;;3.70;95.10;;;;;;5138774;27;20049;-82
2022/03/08 07:44:11;;;;;;;21.85;10.93;;;3.60;94.90;;;;;;5122089;27;20046;-82
2022/03/08 07:46:36;;;;;;;23.38;10.80;;;3.50;95.10;;;;;;5121882;27;20195;-82
2022/03/08 07:49:03;;;;;;;23.48;11.30;;;3.70;95.20;;;;;;5105444;27;20057;-82
2022/03/08 07:51:28;;;;;;;22.25;11.68;;;3.80;95.10;;;;;;5138617;27;20065;-82
2022/03/08 07:53:54;;;;;;;25.63;11.15;;;3.80;95.10;;;;;;5138513;27;20091;-82
2022/03/08 07:56:20;;;;;;;25.15;12.40;;;3.80;95.00;;;;;;5138491;27;20050;-83
2022/03/08 07:58:46;;;;;;;26.33;12.45;;;3.90;95.00;;;;;;5121538;27;20042;-82
2022/03/08 08:01:12;;;;;;;25.90;13.57;;;3.90;94.90;;;;;;5104853;27;20443;-82
2022/03/08 08:03:39;;;;;;;27.85;13.35;;;3.90;94.70;;;;;;5121763;27;20374;-82
2022/03/08 08:06:04;;;;;;;30.23;11.98;;;4.00;94.70;;;;;;5121268;27;20118;-82
2022/03/08 08:08:30;;;;;;;25.92;12.48;;;4.00;94.60;;;;;;5104027;27;20082;-83
2022/03/08 08:10:56;;;;;;;22.13;11.00;;;4.10;94.70;;;;;;5138610;27;20091;-82
2022/03/08 08:13:21;;;;;;;22.20;11.35;;;4.30;94.50;;;;;;5121341;27;20115;-82
2022/03/08 08:15:47;;;;;;;24.70;11.45;;;4.40;94.40;;;;;;5120908;27;20057;-82
2022/03/08 08:18:13;;;;;;;23.75;11.38;;;4.30;94.20;;;;;;5105013;27;20051;-82
2022/03/08 08:20:39;;;;;;;20.13;10.63;;;4.50;94.30;;;;;;5121063;27;20090;-82
2022/03/08 08:23:05;;;;;;;23.00;11.30;;;4.50;94.30;;;;;;5138479;27;20505;-82
2022/03/08 08:25:31;;;;;;;24.33;11.05;;;4.60;94.10;;;;;;5121099;27;20129;-82
2022/03/08 08:27:56;;;;;;;21.25;10.27;;;4.60;94.20;;;;;;5120657;27;20042;-82
2022/03/08 08:30:22;;;;;;;23.48;10.68;;;4.80;94.20;;;;;;5121067;27;20091;-83
2022/03/08 08:32:50;;;;;;;24.50;10.57;;;4.80;94.00;;;;;;5120746;27;20099;-82
2022/03/08 08:35:17;;;;;;;24.92;11.10;;;4.90;93.90;;;;;;5120897;27;20047;-83
2022/03/08 08:37:43;;;;;;;22.00;11.18;;;4.90;93.50;;;;;;5120629;27;20046;-82
2022/03/08 08:40:09;;;;;;;18.83;10.52;;;5.00;93.60;;;;;;5137710;27;20053;-78
2022/03/08 08:42:35;;;;;;;22.30;10.63;;;5.20;93.30;;;;;;5120907;27;20097;-77
2022/03/08 08:45:00;;;;;;;22.95;10.95;;;5.30;93.10;;;;;;5120825;27;20046;-76
2022/03/08 08:47:26;;;;;;;22.77;10.20;;;5.20;93.10;;;;;;5120160;27;20042;-75
2022/03/08 08:49:52;;;;;;;19.42;9.65;;;5.20;93.10;;;;;;5137973;27;20046;-78
2022/03/08 08:52:18;;;;;;;24.58;10.35;;;5.40;93.20;;;;;;5144598;27;20050;-79
2022/03/08 08:54:55;;;;;;;18.63;10.35;;;5.40;93.10;;;;;;5142245;27;20103;-79
2022/03/08 08:57:21;;;;;;;21.70;10.38;;;5.50;92.70;;;;;;5120595;27;20054;-83
2022/03/08 08:59:47;;;;;;;21.00;10.10;;;5.60;92.90;;;;;;5137584;27;20138;-77
2022/03/08 09:02:12;;;;;;;18.85;10.00;;;5.60;93.00;;;;;;5137873;27;20397;-77
2022/03/08 09:04:38;;;;;;;21.75;10.35;;;5.70;92.90;;;;;;5136974;27;20095;-77
2022/03/08 09:07:05;;;;;;;20.38;10.27;;;5.80;93.10;;;;;;5120397;27;20049;-76
2022/03/08 09:09:31;;;;;;;18.65;10.43;;;6.00;92.80;;;;;;5136814;27;20397;-76
2022/03/08 09:11:57;;;;;;;21.67;10.18;;;6.10;92.70;;;;;;5103343;27;20091;-76
2022/03/08 09:14:23;;;;;;;17.20;9.68;;;6.10;92.70;;;;;;5137052;27;20039;-77
2022/03/08 09:16:49;;;;;;;19.05;10.52;;;6.20;92.70;;;;;;5137029;27;20130;-77
2022/03/08 09:19:14;;;;;;;17.10;9.65;;;6.30;92.60;;;;;;5139303;27;20049;-76
2022/03/08 09:21:40;;;;;;;20.25;9.65;;;6.30;92.40;;;;;;5120293;27;20050;-77
2022/03/08 09:24:06;;;;;;;18.08;9.48;;;6.40;92.80;;;;;;5120097;27;20137;-76
2022/03/08 09:26:33;;;;;;;19.08;9.45;;;6.50;92.30;;;;;;5137226;27;20131;-76
2022/03/08 09:28:58;;;;;;;17.77;9.30;;;6.70;92.20;;;;;;5119971;27;20042;-76
2022/03/08 09:31:24;;;;;;;17.60;8.90;;;6.80;92.20;;;;;;5119816;27;20075;-77
2022/03/08 09:33:50;;;;;;;18.63;10.05;;;6.80;91.80;;;;;;5120104;27;20121;-77
2022/03/08 09:36:16;;;;;;;14.90;8.90;;;6.90;92.00;;;;;;5137462;27;20431;-76
2022/03/08 09:38:42;;;;;;;17.60;9.65;;;7.00;91.80;;;;;;5136568;27;20430;-78
2022/03/08 09:41:10;;;;;;;16.90;9.25;;;7.20;92.10;;;;;;5137126;27;20126;-78
2022/03/08 09:43:37;;;;;;;15.65;8.90;;;7.30;91.40;;;;;;5103102;27;20050;-78
2022/03/08 09:46:04;;;;;;;15.82;9.00;;;7.50;91.60;;;;;;5137023;27;20420;-78
2022/03/08 09:48:30;;;;;;;15.07;7.50;;;7.70;91.50;;;;;;5119520;27;20047;-77
2022/03/08 09:51:02;;;;;;;15.57;8.65;;;7.70;90.60;;;;;;5136922;27;20082;-78
2022/03/08 09:53:29;;;;;;;13.57;7.53;;;7.70;90.80;;;;;;5137018;27;20054;-77
2022/03/08 09:55:59;;;;;;;13.77;7.82;;;7.90;90.30;;;;;;5136956;27;20078;-76
2022/03/08 09:58:25;;;;;;;12.32;7.18;;;8.00;90.30;;;;;;5136969;27;20058;-78
2022/03/08 10:00:53;;;;;;;12.45;7.00;;;8.20;89.20;;;;;;5119465;27;20053;-78
2022/03/08 10:03:31;;;;;;;14.77;7.13;;;8.00;89.10;;;;;;5139036;27;20084;-78
2022/03/08 10:05:57;;;;;;;12.47;7.03;;;8.10;88.60;;;;;;5141206;27;20049;-76
2022/03/08 10:08:23;;;;;;;11.73;7.13;;;8.30;89.40;;;;;;5140731;27;20455;-76
2022/03/08 10:10:58;;;;;;;12.57;7.10;;;8.40;87.30;;;;;;5124124;27;20124;-82
2022/03/08 10:13:27;;;;;;;13.25;7.50;;;8.50;88.30;;;;;;5123966;27;20074;-83
2022/03/08 10:16:26;;;;;;;11.57;7.15;;;8.70;88.60;;;;;;5141073;27;20088;-82
2022/03/08 10:18:58;;;;;;;10.38;6.72;;;9.10;87.20;;;;;;5141370;27;20046;-82
2022/03/08 10:21:33;;;;;;;13.73;6.43;;;9.10;86.50;;;;;;5140821;27;20130;-83
2022/03/08 10:24:05;;;;;;;11.15;6.55;;;9.20;85.60;;;;;;5141294;27;20057;-83
2022/03/08 10:26:41;;;;;;;10.93;6.60;;;9.10;85.00;;;;;;5123580;27;20039;-82
2022/03/08 10:29:07;;;;;;;14.90;7.35;;;9.00;84.80;;;;;;5141412;27;20099;-75
2022/03/08 10:31:33;;;;;;;11.73;7.18;;;9.20;87.10;;;;;;5123539;27;20046;-74
2022/03/08 10:34:05;;;;;;;11.05;6.63;;;9.10;86.50;;;;;;5123111;27;20059;-73
2022/03/08 10:36:32;;;;;;;12.48;6.78;;;9.20;87.10;;;;;;5140392;27;20053;-73
2022/03/08 10:39:16;;;;;;;9.88;6.20;;;9.30;86.80;;;;;;5106255;27;20137;-80
2022/03/08 10:41:52;;;;;;;11.15;6.32;;;9.50;85.30;;;;;;5105950;27;20504;-77
2022/03/08 10:44:35;;;;;;;12.80;6.18;;;9.50;85.90;;;;;;5139939;27;20054;-74
2022/03/08 10:47:10;;;;;;;10.70;5.95;;;9.50;86.40;;;;;;5118971;27;20565;-82
2022/03/08 10:49:51;;;;;;;12.60;5.60;;;9.90;85.60;;;;;;5136788;27;20531;-77
2022/03/08 10:52:16;;;;;;;8.43;5.28;;;9.90;82.90;;;;;;5120466;27;20474;-77
2022/03/08 10:54:42;;;;;;;10.07;5.90;;;10.20;83.30;;;;;;5119353;27;20079;-75
2022/03/08 10:57:09;;;;;;;15.05;6.53;;;10.20;83.10;;;;;;5102558;27;20130;-81
2022/03/08 10:59:34;;;;;;;8.15;4.60;;;10.20;82.10;;;;;;5136780;27;20054;-81
2022/03/08 11:02:21;;;;;;;10.00;5.55;;;10.60;79.90;;;;;;5119056;27;20043;-76
2022/03/08 11:04:47;;;;;;;10.27;5.50;;;10.90;81.20;;;;;;5119840;27;20051;-75
2022/03/08 11:07:13;;;;;;;35.78;13.77;;;10.80;81.80;;;;;;5118782;27;20043;-83
2022/03/08 11:09:41;;;;;;;22.38;9.60;;;10.80;79.30;;;;;;5101604;27;20043;-77
2022/03/08 11:12:07;;;;;;;93.95;34.03;;;10.80;78.40;;;;;;5136032;27;20050;-77
2022/03/08 11:14:34;;;;;;;59.17;23.55;;;10.80;80.70;;;;;;5135268;27;20085;-74
2022/03/08 11:17:00;;;;;;;15.98;7.55;;;10.70;81.00;;;;;;5135684;27;20043;-76
2022/03/08 11:19:28;;;;;;;27.10;12.10;;;10.50;78.20;;;;;;5135639;27;20462;-78
2022/03/08 11:21:56;;;;;;;14.27;6.10;;;10.60;79.80;;;;;;5135956;27;20042;-76
2022/03/08 11:24:23;;;;;;;12.52;5.50;;;10.70;76.30;;;;;;5136355;27;20063;-77
2022/03/08 11:26:50;;;;;;;9.85;4.70;;;10.70;78.10;;;;;;5135642;27;20035;-83
2022/03/08 11:29:16;;;;;;;10.38;5.05;;;11.10;78.20;;;;;;5136050;27;20047;-83
2022/03/08 11:31:44;;;;;;;9.25;5.03;;;11.70;78.20;;;;;;5135871;27;20505;-83
2022/03/08 11:34:23;;;;;;;6.90;4.65;;;12.20;76.90;;;;;;5135963;27;20051;-82
2022/03/08 11:37:03;;;;;;;7.85;4.72;;;12.60;75.90;;;;;;5136223;27;20062;-84
2022/03/08 11:39:30;;;;;;;8.63;5.35;;;12.70;73.70;;;;;;5135668;27;20444;-83
2022/03/08 11:42:26;;;;;;;9.95;5.15;;;12.70;75.00;;;;;;5101578;27;20562;-82
2022/03/08 11:44:57;;;;;;;6.25;4.55;;;12.30;72.80;;;;;;5119025;27;20043;-83
2022/03/08 11:47:34;;;;;;;6.22;4.45;;;12.40;72.90;;;;;;5118111;27;20059;-82
2022/03/08 11:50:00;;;;;;;7.47;4.55;;;12.70;73.20;;;;;;5103231;27;20055;-83
2022/03/08 11:52:31;;;;;;;9.23;4.05;;;12.90;71.10;;;;;;5136124;27;20047;-83
2022/03/08 11:55:13;;;;;;;7.47;4.80;;;13.20;70.30;;;;;;5118269;27;20390;-83
2022/03/08 11:57:48;;;;;;;7.97;4.47;;;13.30;71.40;;;;;;5119677;27;20052;-89
2022/03/08 12:00:39;;;;;;;7.05;4.25;;;13.30;70.30;;;;;;5136914;27;20047;-86
2022/03/08 12:03:26;;;;;;;6.55;4.55;;;13.70;70.20;;;;;;5136267;27;20139;-82
2022/03/08 12:05:57;;;;;;;5.38;3.67;;;13.70;67.50;;;;;;5134069;27;20061;-82
2022/03/08 12:08:28;;;;;;;5.25;3.95;;;13.30;69.00;;;;;;5118042;27;20050;-88
2022/03/08 12:11:00;;;;;;;6.55;4.32;;;13.30;68.80;;;;;;5136075;27;20043;-88
2022/03/08 12:13:27;;;;;;;6.38;3.92;;;13.70;68.50;;;;;;5119230;27;20136;-87
2022/03/08 12:16:08;;;;;;;6.68;3.60;;;14.10;68.40;;;;;;5136169;27;20047;-87
2022/03/08 12:18:55;;;;;;;7.22;4.30;;;14.40;67.30;;;;;;5135408;27;20043;-89
2022/03/08 12:21:21;;;;;;;5.20;3.65;;;14.40;67.40;;;;;;5135318;27;20051;-83
2022/03/08 12:24:00;;;;;;;8.55;4.30;;;14.60;65.90;;;;;;5122049;27;20074;-84
2022/03/08 12:26:31;;;;;;;7.45;3.70;;;14.90;66.40;;;;;;5133756;27;20043;-82
2022/03/08 12:29:10;;;;;;;5.63;3.65;;;14.90;65.20;;;;;;5135079;27;20054;-87
2022/03/08 12:31:58;;;;;;;5.75;3.58;;;15.20;64.90;;;;;;5135124;27;20181;-79
2022/03/08 12:34:46;;;;;;;7.70;3.70;;;15.30;63.50;;;;;;5135254;27;20043;-84
2022/03/08 12:37:18;;;;;;;5.13;3.50;;;15.10;64.70;;;;;;5134958;27;20050;-79
2022/03/08 12:39:51;;;;;;;6.65;3.40;;;15.00;62.90;;;;;;5133536;27;20046;-76
2022/03/08 12:42:17;;;;;;;6.32;3.67;;;15.00;63.10;;;;;;5114720;27;20129;-76
2022/03/08 12:44:52;;;;;;;6.30;3.83;;;14.90;61.70;;;;;;5133894;27;20054;-77
2022/03/08 12:47:18;;;;;;;7.65;3.53;;;15.10;63.20;;;;;;5132845;27;20195;-77